Time;durP1;ratioP1;P1;durP2;ratioP2;P2;SDS_P1;SDS_P2;PMS_P1;PMS_P2;Temp;Humidity;BMP_temperature;BMP_pressure;BME280_temperature;BME280_humidity;BME280_pressure;Samples;Min_cycle;Max_cycle;Signal;HPM_P1;HPM_P2
2023/06/26 00:00:04;;;;;;;7.70;6.20;;;21.70;73.90;;;;;;5149803;27;20201;-70
2023/06/26 00:02:32;;;;;;;11.60;7.37;;;21.70;72.60;;;;;;5149833;27;20177;-71
2023/06/26 00:04:58;;;;;;;8.60;7.33;;;21.70;73.90;;;;;;5149864;27;20878;-71
2023/06/26 00:07:24;;;;;;;7.40;6.70;;;21.70;72.90;;;;;;5149736;27;20407;-71
2023/06/26 00:09:49;;;;;;;8.47;7.13;;;21.70;72.90;;;;;;5149974;27;20438;-71
2023/06/26 00:12:15;;;;;;;13.07;7.67;;;21.80;73.20;;;;;;5149878;27;20188;-70
2023/06/26 00:14:41;;;;;;;7.47;6.73;;;21.80;72.20;;;;;;5131055;27;20184;-70
2023/06/26 00:17:07;;;;;;;10.00;6.80;;;21.90;72.70;;;;;;5130876;27;20612;-70
2023/06/26 00:19:33;;;;;;;7.27;6.33;;;21.90;72.60;;;;;;5131128;27;20438;-70
2023/06/26 00:21:58;;;;;;;9.80;6.83;;;21.90;71.90;;;;;;5150076;27;20187;-70
2023/06/26 00:24:24;;;;;;;10.23;7.00;;;21.90;72.30;;;;;;5150061;27;20410;-70
2023/06/26 00:26:49;;;;;;;10.30;7.17;;;21.90;71.50;;;;;;5150133;27;20254;-70
2023/06/26 00:29:15;;;;;;;12.20;7.60;;;21.90;71.50;;;;;;5150530;27;20212;-70
2023/06/26 00:31:41;;;;;;;10.70;7.40;;;21.90;71.90;;;;;;5131828;27;20690;-71
2023/06/26 00:34:07;;;;;;;8.03;7.10;;;21.90;71.40;;;;;;5150244;27;20174;-71
2023/06/26 00:36:32;;;;;;;8.57;7.23;;;21.90;71.90;;;;;;5149891;27;20454;-70
2023/06/26 00:38:59;;;;;;;9.43;7.47;;;21.90;71.50;;;;;;5149767;27;20178;-70
2023/06/26 00:41:25;;;;;;;8.00;6.40;;;21.90;70.60;;;;;;5149668;27;20245;-70
2023/06/26 00:43:51;;;;;;;9.20;7.73;;;22.00;70.80;;;;;;5131129;27;20414;-70
2023/06/26 00:46:17;;;;;;;11.27;7.00;;;22.00;70.80;;;;;;5149693;27;20182;-70
2023/06/26 00:48:45;;;;;;;8.97;6.70;;;21.90;71.90;;;;;;5149407;27;20414;-70
2023/06/26 00:51:11;;;;;;;9.67;7.13;;;21.90;72.10;;;;;;5149469;27;20410;-70
2023/06/26 00:53:37;;;;;;;14.97;7.60;;;21.80;71.70;;;;;;5149466;27;20450;-70
2023/06/26 00:56:03;;;;;;;11.37;7.87;;;21.80;72.30;;;;;;5130442;27;20488;-70
2023/06/26 00:58:28;;;;;;;10.60;7.60;;;21.90;71.30;;;;;;5149576;27;20192;-70
2023/06/26 01:00:54;;;;;;;10.03;7.90;;;22.00;70.80;;;;;;5133156;27;20204;-70
2023/06/26 01:03:22;;;;;;;9.80;7.37;;;22.00;70.70;;;;;;5152943;27;20729;-70
2023/06/26 01:05:49;;;;;;;9.40;8.00;;;22.10;70.50;;;;;;5134714;27;20414;-70
2023/06/26 01:08:15;;;;;;;9.53;8.07;;;22.10;70.10;;;;;;5153034;27;20415;-70
2023/06/26 01:10:42;;;;;;;10.90;7.90;;;22.20;69.70;;;;;;5134065;27;20470;-70
2023/06/26 01:13:08;;;;;;;11.10;8.10;;;22.20;69.40;;;;;;5152900;27;20418;-70
2023/06/26 01:15:34;;;;;;;11.83;7.80;;;22.20;69.40;;;;;;5152932;27;20421;-70
2023/06/26 01:18:03;;;;;;;12.73;8.40;;;22.10;69.60;;;;;;5152745;27;20458;-70
2023/06/26 01:20:37;;;;;;;13.53;7.70;;;22.10;70.00;;;;;;5152670;27;20648;-70
2023/06/26 01:23:23;;;;;;;9.00;7.10;;;22.10;69.80;;;;;;5152601;27;20410;-70
2023/06/26 01:26:07;;;;;;;11.30;8.10;;;22.10;69.70;;;;;;5152692;27;20923;-70
2023/06/26 01:28:41;;;;;;;9.07;7.60;;;22.00;69.60;;;;;;5152565;27;20418;-71
2023/06/26 01:31:08;;;;;;;10.07;7.80;;;22.00;69.80;;;;;;5152584;27;20421;-70
2023/06/26 01:33:34;;;;;;;9.60;7.47;;;22.00;70.00;;;;;;5134044;27;20406;-70
2023/06/26 01:36:01;;;;;;;9.90;7.27;;;22.10;69.70;;;;;;5152391;27;20454;-70
2023/06/26 01:38:26;;;;;;;8.90;7.47;;;22.20;69.40;;;;;;5152511;27;20445;-70
2023/06/26 01:40:52;;;;;;;10.90;7.57;;;22.20;70.20;;;;;;5152241;27;20950;-70
2023/06/26 01:43:51;;;;;;;8.97;7.83;;;22.10;69.60;;;;;;5152272;27;20190;-70
2023/06/26 01:46:27;;;;;;;9.60;7.70;;;22.10;70.30;;;;;;5150762;27;21010;-70
2023/06/26 01:48:59;;;;;;;9.47;7.70;;;22.10;70.50;;;;;;5152035;27;20414;-70
2023/06/26 01:51:30;;;;;;;23.40;7.77;;;22.10;71.00;;;;;;5152110;27;20433;-70
2023/06/26 01:53:58;;;;;;;11.43;7.47;;;22.00;72.00;;;;;;5152383;27;20407;-70
2023/06/26 01:56:24;;;;;;;8.80;7.40;;;21.90;72.50;;;;;;5152041;27;20447;-70
2023/06/26 01:58:54;;;;;;;10.40;7.20;;;21.90;72.20;;;;;;5152177;27;20421;-70
2023/06/26 02:01:20;;;;;;;12.00;7.63;;;21.90;71.80;;;;;;5133991;27;20967;-70
2023/06/26 02:03:45;;;;;;;9.67;7.97;;;21.80;71.60;;;;;;5151982;27;20407;-70
2023/06/26 02:06:11;;;;;;;11.40;7.80;;;21.80;72.20;;;;;;5151797;27;20238;-70
2023/06/26 02:08:36;;;;;;;9.13;6.90;;;21.80;72.90;;;;;;5152029;27;20185;-70
2023/06/26 02:11:02;;;;;;;9.10;7.23;;;21.80;73.00;;;;;;5151344;27;20324;-70
2023/06/26 02:13:27;;;;;;;9.53;7.53;;;21.70;72.60;;;;;;5151718;27;20177;-70
2023/06/26 02:15:53;;;;;;;9.10;7.77;;;21.80;72.80;;;;;;5115538;27;20207;-70
2023/06/26 02:18:21;;;;;;;9.10;7.17;;;21.80;73.70;;;;;;5151777;27;20174;-70
2023/06/26 02:20:46;;;;;;;10.83;8.00;;;21.80;73.90;;;;;;5133170;27;20206;-70
2023/06/26 02:23:12;;;;;;;12.17;8.60;;;21.80;74.10;;;;;;5151481;27;20841;-70
2023/06/26 02:25:38;;;;;;;8.80;6.97;;;21.80;74.00;;;;;;5151594;27;20595;-70
2023/06/26 02:28:03;;;;;;;13.20;8.20;;;21.80;74.40;;;;;;5151785;27;20439;-70
2023/06/26 02:30:29;;;;;;;9.20;7.67;;;21.80;74.50;;;;;;5151541;27;20317;-70
2023/06/26 02:32:55;;;;;;;10.00;6.70;;;21.80;73.90;;;;;;5132589;27;20229;-70
2023/06/26 02:35:20;;;;;;;9.50;6.93;;;21.80;73.80;;;;;;5151394;27;20715;-70
2023/06/26 02:37:46;;;;;;;9.40;6.90;;;21.80;74.30;;;;;;5151199;27;20586;-70
2023/06/26 02:40:11;;;;;;;9.50;7.60;;;21.70;74.30;;;;;;5132256;27;20224;-70
2023/06/26 02:42:37;;;;;;;9.67;7.67;;;21.80;74.40;;;;;;5151213;27;20744;-70
2023/06/26 02:45:03;;;;;;;7.37;6.40;;;21.80;74.20;;;;;;5132250;27;20184;-70
2023/06/26 02:47:29;;;;;;;8.70;7.30;;;21.70;74.20;;;;;;5132261;27;20656;-70
2023/06/26 02:49:54;;;;;;;10.50;7.30;;;21.70;73.90;;;;;;5150858;27;20200;-70
2023/06/26 02:52:20;;;;;;;8.50;7.60;;;21.60;75.10;;;;;;5151171;27;20491;-70
2023/06/26 02:54:45;;;;;;;8.67;6.77;;;21.60;73.70;;;;;;5132151;27;20662;-70
2023/06/26 02:57:12;;;;;;;11.10;8.60;;;21.50;75.50;;;;;;5150725;27;20223;-70
2023/06/26 02:59:39;;;;;;;11.60;9.17;;;21.20;81.30;;;;;;5150773;27;20200;-70
2023/06/26 03:02:05;;;;;;;10.40;7.57;;;20.80;87.70;;;;;;5150886;27;20493;-70
2023/06/26 03:04:30;;;;;;;9.33;7.63;;;20.70;84.20;;;;;;5131958;27;20511;-70
2023/06/26 03:06:56;;;;;;;10.73;7.63;;;20.60;84.70;;;;;;5131892;27;20263;-70
2023/06/26 03:09:21;;;;;;;8.50;7.43;;;20.60;89.10;;;;;;5150640;27;20689;-70
2023/06/26 03:11:48;;;;;;;9.23;7.53;;;20.60;81.00;;;;;;5151050;27;20547;-69
2023/06/26 03:14:13;;;;;;;8.90;7.33;;;20.70;81.30;;;;;;5150655;27;20203;-69
2023/06/26 03:16:40;;;;;;;9.53;7.50;;;20.60;80.20;;;;;;5150590;27;20458;-70
2023/06/26 03:19:05;;;;;;;15.90;7.80;;;20.70;82.00;;;;;;5150656;27;20206;-70
2023/06/26 03:21:32;;;;;;;13.50;8.90;;;20.80;78.20;;;;;;5150575;27;20417;-70
2023/06/26 03:23:57;;;;;;;12.30;7.83;;;20.70;87.00;;;;;;5131855;27;20178;-70
2023/06/26 03:26:27;;;;;;;11.17;7.50;;;20.60;87.50;;;;;;5131503;27;20444;-70
2023/06/26 03:28:53;;;;;;;8.50;7.37;;;20.60;86.70;;;;;;5132484;27;20169;-70
2023/06/26 03:31:19;;;;;;;9.17;7.27;;;20.70;85.70;;;;;;5150360;27;20457;-70
2023/06/26 03:33:44;;;;;;;9.70;8.37;;;20.70;85.40;;;;;;5131663;27;20510;-70
2023/06/26 03:36:10;;;;;;;13.50;8.60;;;20.60;91.70;;;;;;5150032;27;20249;-70
2023/06/26 03:38:35;;;;;;;11.30;8.40;;;20.30;94.30;;;;;;5150467;27;20199;-70
2023/06/26 03:41:01;;;;;;;12.90;9.10;;;20.30;94.80;;;;;;5131247;27;20211;-70
2023/06/26 03:43:27;;;;;;;12.13;8.40;;;20.20;95.90;;;;;;5131312;27;20180;-69
2023/06/26 03:45:53;;;;;;;11.23;9.03;;;20.10;97.50;;;;;;5131369;27;20767;-73
2023/06/26 03:48:18;;;;;;;11.87;8.67;;;19.90;98.40;;;;;;5150233;27;20669;-72
2023/06/26 03:50:45;;;;;;;12.63;8.40;;;19.70;99.90;;;;;;5131259;27;20290;-73
2023/06/26 03:53:11;;;;;;;11.40;8.67;;;19.60;99.90;;;;;;5150220;27;20221;-73
2023/06/26 03:55:38;;;;;;;10.47;8.40;;;19.50;99.90;;;;;;5150455;27;20409;-72
2023/06/26 03:58:04;;;;;;;11.47;8.13;;;19.40;99.90;;;;;;5131193;27;20846;-72
2023/06/26 04:00:29;;;;;;;10.83;8.07;;;19.30;99.90;;;;;;5114000;27;20433;-72
2023/06/26 04:02:55;;;;;;;13.33;8.90;;;19.30;99.90;;;;;;5150174;27;20424;-73
2023/06/26 04:05:20;;;;;;;11.97;9.00;;;19.30;99.90;;;;;;5131583;27;20271;-72
2023/06/26 04:07:50;;;;;;;12.13;9.17;;;19.40;99.90;;;;;;5150257;27;20188;-73
2023/06/26 04:10:15;;;;;;;9.23;7.53;;;19.40;99.90;;;;;;5150031;27;20218;-73
2023/06/26 04:12:41;;;;;;;9.93;7.73;;;19.50;99.90;;;;;;5149782;27;20496;-72
2023/06/26 04:15:07;;;;;;;12.23;8.53;;;19.50;99.90;;;;;;5131323;27;20580;-75
2023/06/26 04:17:33;;;;;;;13.80;7.90;;;19.60;99.90;;;;;;5149959;27;20212;-73
2023/06/26 04:19:58;;;;;;;10.80;8.93;;;19.60;99.90;;;;;;5149314;27;20452;-74
2023/06/26 04:22:25;;;;;;;13.07;9.60;;;19.70;99.90;;;;;;5113558;27;20215;-73
2023/06/26 04:24:51;;;;;;;11.40;7.67;;;19.60;99.90;;;;;;5113405;27;20683;-73
2023/06/26 04:27:18;;;;;;;12.93;8.70;;;19.60;99.90;;;;;;5130168;27;20445;-73
2023/06/26 04:29:43;;;;;;;10.20;7.60;;;19.70;99.90;;;;;;5149140;27;20434;-72
2023/06/26 04:32:09;;;;;;;12.60;8.10;;;19.80;99.90;;;;;;5113436;27;20439;-72
2023/06/26 04:34:36;;;;;;;15.13;8.37;;;19.90;99.90;;;;;;5149389;27;20187;-72
2023/06/26 04:37:05;;;;;;;9.90;7.57;;;20.00;99.90;;;;;;5134839;27;20786;-72
2023/06/26 04:39:31;;;;;;;10.10;7.33;;;20.20;99.90;;;;;;5133858;27;20461;-72
2023/06/26 04:41:56;;;;;;;10.83;6.93;;;20.50;99.90;;;;;;5152861;27;20413;-76
2023/06/26 04:44:22;;;;;;;10.43;8.17;;;20.90;97.40;;;;;;5152755;27;20245;-71
2023/06/26 04:46:47;;;;;;;8.73;6.73;;;21.10;98.80;;;;;;5152765;27;20188;-72
2023/06/26 04:49:17;;;;;;;9.40;7.50;;;21.30;95.10;;;;;;5152691;27;20201;-72
2023/06/26 04:51:43;;;;;;;8.50;7.30;;;21.50;93.10;;;;;;5152399;27;20207;-73
2023/06/26 04:54:10;;;;;;;7.93;6.37;;;21.80;92.60;;;;;;5133880;27;20986;-73
2023/06/26 04:56:36;;;;;;;11.83;7.90;;;22.00;91.90;;;;;;5152543;27;20210;-71
2023/06/26 04:59:03;;;;;;;9.10;7.03;;;22.10;93.70;;;;;;5134075;27;20843;-72
2023/06/26 05:01:29;;;;;;;8.80;7.30;;;22.10;93.70;;;;;;5152371;27;20418;-73
2023/06/26 05:03:58;;;;;;;15.93;8.60;;;22.20;94.30;;;;;;5152288;27;20424;-73
2023/06/26 05:06:24;;;;;;;11.20;8.40;;;22.20;94.60;;;;;;5153133;27;20982;-72
2023/06/26 05:08:50;;;;;;;14.30;7.93;;;22.10;94.90;;;;;;5152896;27;20505;-72
2023/06/26 05:11:15;;;;;;;16.00;8.13;;;22.00;95.10;;;;;;5133327;27;20182;-72
2023/06/26 05:13:41;;;;;;;13.00;8.87;;;22.10;95.50;;;;;;5116691;27;20193;-74
2023/06/26 05:16:08;;;;;;;10.10;8.40;;;21.90;94.80;;;;;;5152374;27;20675;-72
2023/06/26 05:18:34;;;;;;;11.00;8.87;;;21.80;94.60;;;;;;5152653;27;20417;-72
2023/06/26 05:21:01;;;;;;;13.93;8.47;;;21.70;94.50;;;;;;5133458;27;20427;-73
2023/06/26 05:23:30;;;;;;;10.97;8.80;;;21.70;94.00;;;;;;5133359;27;20436;-72
2023/06/26 05:25:56;;;;;;;11.40;8.00;;;21.70;94.00;;;;;;5151822;27;20471;-72
2023/06/26 05:28:24;;;;;;;12.00;8.70;;;21.60;94.10;;;;;;5152026;27;20418;-72
2023/06/26 05:30:53;;;;;;;15.00;8.10;;;21.60;95.20;;;;;;5133372;27;20509;-72
2023/06/26 05:33:21;;;;;;;13.23;9.37;;;21.70;96.70;;;;;;5151947;27;20451;-71
2023/06/26 05:35:48;;;;;;;9.70;7.50;;;21.90;95.50;;;;;;5151713;27;20418;-71
2023/06/26 05:38:14;;;;;;;10.93;8.30;;;22.00;95.40;;;;;;5151421;27;20507;-71
2023/06/26 05:40:40;;;;;;;12.70;8.70;;;22.10;95.80;;;;;;5151422;27;20518;-71
2023/06/26 05:43:07;;;;;;;11.00;8.00;;;22.20;95.70;;;;;;5151715;27;20437;-73
2023/06/26 05:45:33;;;;;;;10.03;8.07;;;22.40;95.10;;;;;;5151586;27;20920;-72
2023/06/26 05:47:58;;;;;;;9.47;7.90;;;22.50;95.30;;;;;;5151064;27;20419;-73
2023/06/26 05:50:24;;;;;;;11.77;7.40;;;22.80;94.30;;;;;;5151955;27;20969;-74
2023/06/26 05:52:51;;;;;;;9.90;7.37;;;22.90;93.60;;;;;;5133528;27;20199;-74
2023/06/26 05:55:17;;;;;;;9.60;7.20;;;23.00;92.40;;;;;;5151819;27;20797;-72
2023/06/26 05:57:45;;;;;;;10.40;7.77;;;23.20;92.90;;;;;;5133335;27;20837;-72
2023/06/26 06:00:11;;;;;;;13.20;9.70;;;23.40;92.70;;;;;;5151720;27;20589;-72
2023/06/26 06:02:38;;;;;;;10.50;7.83;;;23.40;93.00;;;;;;5151878;27;20464;-73
2023/06/26 06:05:04;;;;;;;10.80;8.40;;;23.40;93.70;;;;;;5132997;27;20412;-71
2023/06/26 06:07:30;;;;;;;12.17;8.80;;;23.50;93.90;;;;;;5151599;27;21074;-71
2023/06/26 06:09:56;;;;;;;10.10;7.97;;;23.50;94.90;;;;;;5115546;27;20442;-73
2023/06/26 06:12:22;;;;;;;19.60;8.00;;;23.50;94.30;;;;;;5151517;27;20431;-72
2023/06/26 06:14:47;;;;;;;12.43;7.90;;;23.60;95.20;;;;;;5151312;27;20173;-73
2023/06/26 06:17:13;;;;;;;12.83;8.00;;;23.60;96.30;;;;;;5151119;27;20243;-70
2023/06/26 06:19:38;;;;;;;10.93;8.50;;;23.70;96.70;;;;;;5151409;27;20574;-71
2023/06/26 06:22:04;;;;;;;7.47;6.60;;;23.90;94.50;;;;;;5151222;27;20179;-73
2023/06/26 06:24:29;;;;;;;8.30;6.23;;;24.10;91.20;;;;;;5132956;27;20273;-72
2023/06/26 06:26:55;;;;;;;9.60;6.20;;;24.50;85.40;;;;;;5132880;27;20215;-71
2023/06/26 06:29:20;;;;;;;8.13;5.93;;;24.70;81.00;;;;;;5132798;27;20202;-71
2023/06/26 06:31:46;;;;;;;8.10;5.83;;;25.00;79.50;;;;;;5151542;27;20717;-72
2023/06/26 06:34:12;;;;;;;5.20;4.63;;;25.30;78.80;;;;;;5151758;27;20192;-70
2023/06/26 06:36:38;;;;;;;6.90;5.53;;;25.50;76.40;;;;;;5133182;27;20212;-72
2023/06/26 06:39:03;;;;;;;6.87;5.80;;;25.70;75.90;;;;;;5151666;27;20918;-71
2023/06/26 06:41:29;;;;;;;6.77;5.70;;;25.80;74.50;;;;;;5151748;27;20203;-71
2023/06/26 06:43:55;;;;;;;6.57;5.83;;;26.00;73.60;;;;;;5151503;27;20183;-71
2023/06/26 06:46:20;;;;;;;6.80;6.13;;;26.10;72.90;;;;;;5132820;27;20188;-73
2023/06/26 06:48:46;;;;;;;6.20;5.53;;;26.20;72.20;;;;;;5151348;27;20182;-71
2023/06/26 06:51:12;;;;;;;5.93;5.33;;;26.30;71.90;;;;;;5132462;27;20184;-71
2023/06/26 06:53:38;;;;;;;6.77;5.60;;;26.40;70.80;;;;;;5151287;27;20413;-70
2023/06/26 06:56:04;;;;;;;9.03;5.50;;;26.30;70.30;;;;;;5150861;27;20418;-70
2023/06/26 06:58:33;;;;;;;6.83;6.00;;;26.40;71.60;;;;;;5150235;27;20172;-71
2023/06/26 07:00:59;;;;;;;6.97;5.90;;;26.50;72.00;;;;;;5131848;27;20196;-72
2023/06/26 07:03:25;;;;;;;6.90;5.80;;;26.70;72.50;;;;;;5150452;27;20943;-71
2023/06/26 07:05:50;;;;;;;6.60;5.60;;;26.80;70.00;;;;;;5150777;27;20204;-71
2023/06/26 07:08:16;;;;;;;6.37;5.77;;;26.80;70.40;;;;;;5132183;27;20213;-71
2023/06/26 07:10:41;;;;;;;7.73;5.27;;;26.90;69.80;;;;;;5150946;27;20204;-71
2023/06/26 07:13:07;;;;;;;6.53;5.67;;;26.90;70.20;;;;;;5150817;27;20188;-72
2023/06/26 07:15:33;;;;;;;6.57;6.00;;;27.00;70.40;;;;;;5150860;27;20661;-71
2023/06/26 07:17:58;;;;;;;7.20;5.70;;;27.00;70.20;;;;;;5150832;27;20227;-70
2023/06/26 07:20:24;;;;;;;6.37;5.77;;;27.00;70.30;;;;;;5150919;27;20211;-71
2023/06/26 07:22:50;;;;;;;6.80;5.17;;;27.00;70.30;;;;;;5150939;27;20192;-71
2023/06/26 07:25:15;;;;;;;6.53;5.37;;;27.00;71.60;;;;;;5132097;27;20185;-72
2023/06/26 07:27:41;;;;;;;7.00;6.20;;;27.00;71.30;;;;;;5150480;27;20192;-70
2023/06/26 07:30:11;;;;;;;7.80;6.03;;;27.00;71.50;;;;;;5150409;27;20212;-71
2023/06/26 07:32:37;;;;;;;7.63;6.60;;;27.10;70.30;;;;;;5131671;27;20485;-71
2023/06/26 07:35:04;;;;;;;10.63;5.43;;;27.10;69.80;;;;;;5150082;27;20420;-70
2023/06/26 07:37:30;;;;;;;8.23;6.30;;;27.20;71.50;;;;;;5149851;27;20495;-71
2023/06/26 07:39:56;;;;;;;5.83;5.23;;;27.10;70.60;;;;;;5149912;27;20441;-70
2023/06/26 07:42:21;;;;;;;5.60;5.10;;;27.10;70.50;;;;;;5113944;27;20195;-70
2023/06/26 07:44:47;;;;;;;10.33;6.80;;;27.10;71.10;;;;;;5150016;27;20587;-70
2023/06/26 07:47:13;;;;;;;16.00;6.17;;;27.20;70.60;;;;;;5150211;27;20192;-71
2023/06/26 07:49:40;;;;;;;6.70;5.63;;;27.20;72.40;;;;;;5150311;27;20205;-71
2023/06/26 07:52:06;;;;;;;8.20;6.07;;;27.20;72.20;;;;;;5150061;27;21058;-71
2023/06/26 07:54:32;;;;;;;6.87;6.17;;;27.20;72.10;;;;;;5149997;27;20966;-73
2023/06/26 07:56:57;;;;;;;7.27;5.80;;;27.30;73.70;;;;;;5131133;27;20469;-72
2023/06/26 07:59:25;;;;;;;10.23;5.93;;;27.40;72.50;;;;;;5149954;27;20196;-72
2023/06/26 08:01:51;;;;;;;11.20;6.37;;;27.50;73.60;;;;;;5149951;27;20184;-70
2023/06/26 08:04:19;;;;;;;13.63;6.20;;;27.50;73.20;;;;;;5149879;27;20938;-72
2023/06/26 08:06:45;;;;;;;7.67;6.00;;;27.60;72.50;;;;;;5149771;27;20421;-71
2023/06/26 08:09:12;;;;;;;6.83;6.13;;;27.70;72.00;;;;;;5149560;27;20436;-70
2023/06/26 08:11:38;;;;;;;5.70;5.10;;;27.70;72.20;;;;;;5153797;27;20247;-71
2023/06/26 08:14:03;;;;;;;8.07;6.23;;;27.70;73.40;;;;;;5135497;27;21002;-71
2023/06/26 08:16:29;;;;;;;7.93;6.83;;;27.80;72.80;;;;;;5153796;27;20204;-72
2023/06/26 08:18:55;;;;;;;7.60;6.10;;;27.90;72.70;;;;;;5153840;27;20187;-72
2023/06/26 08:21:20;;;;;;;8.53;5.67;;;27.90;71.20;;;;;;5135574;27;20180;-71
2023/06/26 08:23:46;;;;;;;5.97;5.37;;;28.00;71.20;;;;;;5153906;27;20244;-69
2023/06/26 08:26:11;;;;;;;6.60;6.00;;;28.10;71.10;;;;;;5153773;27;21012;-71
2023/06/26 08:28:37;;;;;;;7.20;6.50;;;28.30;70.40;;;;;;5153639;27;20224;-70
2023/06/26 08:31:02;;;;;;;6.00;5.40;;;28.30;72.30;;;;;;5153540;27;20223;-71
2023/06/26 08:33:28;;;;;;;7.60;6.30;;;28.40;72.40;;;;;;5134601;27;20195;-71
2023/06/26 08:35:54;;;;;;;7.37;5.33;;;28.40;71.90;;;;;;5134781;27;20211;-71
2023/06/26 08:38:21;;;;;;;6.80;6.00;;;28.40;72.40;;;;;;5134301;27;20321;-70
2023/06/26 08:40:47;;;;;;;8.57;6.10;;;28.40;70.90;;;;;;5153075;27;20276;-70
2023/06/26 08:43:12;;;;;;;6.90;6.20;;;28.40;70.60;;;;;;5152964;27;20852;-70
2023/06/26 08:45:38;;;;;;;5.97;5.37;;;28.50;71.30;;;;;;5134487;27;20421;-70
2023/06/26 08:48:07;;;;;;;6.73;5.53;;;28.50;73.60;;;;;;5152873;27;20240;-71
2023/06/26 08:50:34;;;;;;;8.50;5.40;;;28.60;71.60;;;;;;5153069;27;20200;-70
2023/06/26 08:53:23;;;;;;;7.63;5.30;;;28.70;71.10;;;;;;5153165;27;20746;-70
2023/06/26 08:55:51;;;;;;;5.90;5.40;;;28.80;72.10;;;;;;5152964;27;20951;-72
2023/06/26 08:58:17;;;;;;;15.83;6.03;;;28.90;70.50;;;;;;5152338;27;20572;-71
2023/06/26 09:00:43;;;;;;;6.27;5.67;;;28.90;69.30;;;;;;5152667;27;20886;-70
2023/06/26 09:03:10;;;;;;;7.13;4.90;;;29.00;70.60;;;;;;5134265;27;20187;-72
2023/06/26 09:05:36;;;;;;;6.03;5.40;;;29.10;70.50;;;;;;5152588;27;20418;-71
2023/06/26 09:08:02;;;;;;;6.43;5.80;;;29.20;72.00;;;;;;5133827;27;20536;-70
2023/06/26 09:10:27;;;;;;;6.60;6.00;;;29.30;68.90;;;;;;5152435;27;20486;-71
2023/06/26 09:13:01;;;;;;;7.03;6.10;;;29.50;68.40;;;;;;5152403;27;20453;-71
2023/06/26 09:15:28;;;;;;;5.83;5.23;;;29.50;67.70;;;;;;5152511;27;20653;-70
2023/06/26 09:17:59;;;;;;;6.10;5.60;;;29.60;69.80;;;;;;5151965;27;20465;-71
2023/06/26 09:20:30;;;;;;;7.93;6.03;;;29.70;68.90;;;;;;5151732;27;20802;-70
2023/06/26 09:22:56;;;;;;;6.43;5.83;;;29.90;67.50;;;;;;5151776;27;20412;-71
2023/06/26 09:25:23;;;;;;;6.47;5.80;;;29.90;68.30;;;;;;5151727;27;20437;-71
2023/06/26 09:27:48;;;;;;;5.50;5.10;;;29.90;69.40;;;;;;5133243;27;20881;-71
2023/06/26 09:30:17;;;;;;;6.97;5.57;;;30.00;68.60;;;;;;5151591;27;20537;-71
2023/06/26 09:32:42;;;;;;;7.97;6.23;;;30.00;66.80;;;;;;5151523;27;20621;-71
2023/06/26 09:35:08;;;;;;;9.40;6.23;;;30.10;66.90;;;;;;5151931;27;20517;-70
2023/06/26 09:37:34;;;;;;;6.10;5.53;;;30.30;67.40;;;;;;5151404;27;20215;-70
2023/06/26 09:40:00;;;;;;;10.20;6.47;;;30.30;66.80;;;;;;5151595;27;20571;-71
2023/06/26 09:42:25;;;;;;;7.40;5.53;;;30.40;67.60;;;;;;5151831;27;20422;-71
2023/06/26 09:44:51;;;;;;;6.70;6.10;;;30.50;66.80;;;;;;5132897;27;20188;-71
2023/06/26 09:47:19;;;;;;;6.47;5.97;;;30.70;63.90;;;;;;5151887;27;20194;-71
2023/06/26 09:49:48;;;;;;;6.60;6.00;;;30.70;65.70;;;;;;5151511;27;20243;-70
2023/06/26 09:52:16;;;;;;;6.03;5.53;;;30.80;66.70;;;;;;5115872;27;20490;-71
2023/06/26 09:54:43;;;;;;;6.90;5.83;;;30.90;67.10;;;;;;5151867;27;20418;-71
2023/06/26 09:57:10;;;;;;;7.67;6.40;;;31.00;65.40;;;;;;5151215;27;20514;-70
2023/06/26 09:59:36;;;;;;;13.30;6.00;;;31.10;65.10;;;;;;5151186;27;20525;-71
2023/06/26 10:02:02;;;;;;;7.53;6.03;;;31.10;63.30;;;;;;5151390;27;20522;-72
2023/06/26 10:04:28;;;;;;;6.17;5.53;;;31.10;61.70;;;;;;5151666;27;20443;-72
2023/06/26 10:07:00;;;;;;;6.27;5.67;;;31.20;63.50;;;;;;5151742;27;20457;-72
2023/06/26 10:09:28;;;;;;;6.20;5.70;;;31.10;65.20;;;;;;5132887;27;20558;-71
2023/06/26 10:11:57;;;;;;;7.60;6.03;;;30.90;63.80;;;;;;5151447;27;20985;-72
2023/06/26 10:14:27;;;;;;;8.20;5.70;;;31.00;65.90;;;;;;5132937;27;20824;-71
2023/06/26 10:16:58;;;;;;;8.87;5.60;;;31.20;65.60;;;;;;5151589;27;20455;-71
2023/06/26 10:19:26;;;;;;;6.03;5.63;;;31.50;64.10;;;;;;5151404;27;20523;-71
2023/06/26 10:21:53;;;;;;;6.80;6.20;;;31.60;61.70;;;;;;5151199;27;20411;-71
2023/06/26 10:24:20;;;;;;;6.93;5.53;;;31.50;60.90;;;;;;5116043;27;20572;-72
2023/06/26 10:26:49;;;;;;;6.77;6.17;;;31.30;60.80;;;;;;5132993;27;20582;-72
2023/06/26 10:29:17;;;;;;;8.73;6.30;;;31.20;60.50;;;;;;5133048;27;20433;-71
2023/06/26 10:31:49;;;;;;;6.30;5.40;;;31.10;58.80;;;;;;5151047;27;20957;-72
2023/06/26 10:34:15;;;;;;;8.10;5.80;;;30.90;61.00;;;;;;5150585;27;20466;-71
2023/06/26 10:36:41;;;;;;;8.80;5.87;;;31.20;61.60;;;;;;5150727;27;20457;-72
2023/06/26 10:39:07;;;;;;;6.03;5.43;;;31.40;62.10;;;;;;5115098;27;20978;-71
2023/06/26 10:41:42;;;;;;;6.67;6.10;;;31.60;61.40;;;;;;5132279;27;20700;-72
2023/06/26 10:44:16;;;;;;;6.20;5.70;;;31.50;61.80;;;;;;5150831;27;20192;-73
2023/06/26 10:46:55;;;;;;;6.87;5.93;;;31.20;62.10;;;;;;5131979;27;20413;-71
2023/06/26 10:49:26;;;;;;;7.50;6.80;;;30.90;61.30;;;;;;5150429;27;20444;-71
2023/06/26 10:51:54;;;;;;;5.90;5.40;;;30.80;61.80;;;;;;5150847;27;20892;-71
2023/06/26 10:54:20;;;;;;;7.33;6.63;;;31.10;61.80;;;;;;5131287;27;20417;-71
2023/06/26 10:56:48;;;;;;;7.13;6.30;;;31.30;61.00;;;;;;5149987;27;20460;-71
2023/06/26 10:59:21;;;;;;;6.20;5.70;;;31.10;61.10;;;;;;5131019;27;20444;-72
2023/06/26 11:02:00;;;;;;;9.30;5.67;;;31.00;59.80;;;;;;5149872;27;20449;-72
2023/06/26 11:04:46;;;;;;;6.67;5.97;;;31.20;62.20;;;;;;5149931;27;21078;-72
2023/06/26 11:07:25;;;;;;;6.87;6.27;;;31.60;61.70;;;;;;5131056;27;20416;-72
2023/06/26 11:10:01;;;;;;;6.07;5.50;;;31.60;61.60;;;;;;5149738;27;20669;-72
2023/06/26 11:12:41;;;;;;;5.97;5.50;;;31.40;59.40;;;;;;5149859;27;20409;-72
2023/06/26 11:15:15;;;;;;;7.40;6.33;;;31.30;58.70;;;;;;5149986;27;20421;-71
2023/06/26 11:17:42;;;;;;;10.13;5.33;;;31.50;59.30;;;;;;5130832;27;21310;-71
2023/06/26 11:20:09;;;;;;;6.23;5.40;;;31.70;57.00;;;;;;5149844;27;20804;-72
2023/06/26 11:22:42;;;;;;;6.97;6.30;;;31.90;56.40;;;;;;5130849;27;20421;-71
2023/06/26 11:25:09;;;;;;;6.10;5.50;;;32.10;58.90;;;;;;5150023;27;20418;-71
2023/06/26 11:27:37;;;;;;;7.70;6.40;;;32.30;57.80;;;;;;5114193;27;20949;-70
2023/06/26 11:30:05;;;;;;;6.03;5.53;;;32.40;57.30;;;;;;5150008;27;20461;-71
2023/06/26 11:32:32;;;;;;;7.80;7.03;;;32.50;57.10;;;;;;5150246;27;20421;-71
2023/06/26 11:34:58;;;;;;;8.20;6.03;;;32.30;55.80;;;;;;5132153;27;20501;-71
2023/06/26 11:37:25;;;;;;;6.60;5.97;;;32.20;56.60;;;;;;5150016;27;20560;-71
2023/06/26 11:39:51;;;;;;;9.50;6.13;;;31.90;57.40;;;;;;5150431;27;20433;-71
2023/06/26 11:42:20;;;;;;;12.70;5.77;;;31.70;60.50;;;;;;5150399;27;20421;-72
2023/06/26 11:44:46;;;;;;;6.73;5.93;;;31.60;61.10;;;;;;5150415;27;20421;-71
2023/06/26 11:47:18;;;;;;;6.53;5.93;;;31.60;61.00;;;;;;5150381;27;20478;-71
2023/06/26 11:49:45;;;;;;;7.13;6.43;;;31.80;59.10;;;;;;5150141;27;20204;-72
2023/06/26 11:52:11;;;;;;;9.33;6.70;;;31.90;61.30;;;;;;5150319;27;20436;-72
2023/06/26 11:54:37;;;;;;;6.93;6.33;;;31.90;59.90;;;;;;5150288;27;20414;-72
2023/06/26 11:57:03;;;;;;;7.67;6.03;;;31.90;59.40;;;;;;5150103;27;20335;-71
2023/06/26 11:59:35;;;;;;;6.67;6.00;;;32.00;59.40;;;;;;5150427;27;20963;-72
2023/06/26 12:02:06;;;;;;;9.47;6.57;;;32.10;59.00;;;;;;5150594;27;20220;-74
2023/06/26 12:04:33;;;;;;;8.27;6.33;;;32.20;59.30;;;;;;5134133;27;20445;-72
2023/06/26 12:06:59;;;;;;;7.10;6.40;;;32.30;60.10;;;;;;5133484;27;20512;-70
2023/06/26 12:09:26;;;;;;;8.90;7.13;;;32.50;60.40;;;;;;5131980;27;20445;-71
2023/06/26 12:11:54;;;;;;;9.40;6.50;;;32.50;60.20;;;;;;5132387;27;20441;-73
2023/06/26 12:14:21;;;;;;;8.83;7.37;;;32.50;60.70;;;;;;5150258;27;20414;-72
2023/06/26 12:16:47;;;;;;;8.07;7.23;;;32.40;59.90;;;;;;5150459;27;20461;-72
2023/06/26 12:19:14;;;;;;;7.27;6.57;;;32.30;60.00;;;;;;5150409;27;20847;-72
2023/06/26 12:21:52;;;;;;;8.80;7.67;;;32.40;62.30;;;;;;5151264;27;20192;-72
2023/06/26 12:24:21;;;;;;;9.73;7.53;;;32.30;60.60;;;;;;5151659;27;20417;-72
2023/06/26 12:26:56;;;;;;;6.57;6.07;;;32.50;59.90;;;;;;5152337;27;20456;-72
2023/06/26 12:29:31;;;;;;;10.10;6.73;;;32.60;60.20;;;;;;5114975;27;20477;-71
2023/06/26 12:31:57;;;;;;;7.47;6.87;;;32.60;60.00;;;;;;5150561;27;20398;-73
2023/06/26 12:34:31;;;;;;;7.77;7.17;;;32.70;59.00;;;;;;5150412;27;20433;-71
2023/06/26 12:37:10;;;;;;;7.00;6.30;;;32.70;59.70;;;;;;5150455;27;20203;-71
2023/06/26 12:40:16;;;;;;;9.03;6.47;;;32.70;59.50;;;;;;5131289;27;21359;-71
2023/06/26 12:42:42;;;;;;;8.20;6.80;;;32.80;60.60;;;;;;5117206;27;20436;-71